RYR2HV EIDW-LFBH
Flight info
| Callsign | RYR2HV |
|---|---|
| Flight time | 1h 27m |
| Altitude | 31000 |
| Route | PESIT2J PESIT DCT BAKUR DCT GUBJE DCT GISOK DCT TACQI DCT MANIG DCT BADUR DCT KORER UM616 NTS A25 LUSON |
| Aircraft | B38M/M-SDE1FGHILORVWXY/HB1 |
Departure
| Time | 2026-05-06 11:32 |
|---|---|
| Airport | Dublin Airport (EIDW) |
Arrival
| Time | 2026-05-06 12:59 |
|---|---|
| Airport | La Rochelle Île de Ré Airport (LFBH) |
| Time | Latitude | Longitude | Altitude | Speed | Heading |
|---|---|---|---|---|---|
| 2026-05-06 11:02 | 53.43098 | -6.24860 | 227 ft | 0 kts | 185° |
| 2026-05-06 11:22 | 53.43100 | -6.24859 | 228 ft | 2 kts | 178° |
| 2026-05-06 11:23 | 53.43091 | -6.24844 | 227 ft | 3 kts | 130° |
| 2026-05-06 11:23 | 53.43100 | -6.24866 | 228 ft | 2 kts | 124° |
| 2026-05-06 11:23 | 53.43110 | -6.24886 | 232 ft | 3 kts | 152° |
| 2026-05-06 11:23 | 53.43127 | -6.24892 | 227 ft | 3 kts | 184° |
| 2026-05-06 11:24 | 53.43145 | -6.24889 | 227 ft | 3 kts | 184° |
| 2026-05-06 11:24 | 53.43164 | -6.24890 | 231 ft | 3 kts | 168° |
| 2026-05-06 11:24 | 53.43182 | -6.24901 | 227 ft | 3 kts | 143° |
| 2026-05-06 11:24 | 53.43194 | -6.24923 | 229 ft | 3 kts | 106° |
| 2026-05-06 11:25 | 53.43195 | -6.24937 | 228 ft | 1 kts | 95° |
| 2026-05-06 11:28 | 53.43195 | -6.24930 | 228 ft | 2 kts | 95° |
| 2026-05-06 11:28 | 53.43192 | -6.24884 | 229 ft | 9 kts | 95° |
| 2026-05-06 11:28 | 53.43186 | -6.24754 | 229 ft | 13 kts | 95° |
| 2026-05-06 11:29 | 53.43196 | -6.24607 | 227 ft | 13 kts | 92° |
| 2026-05-06 11:29 | 53.43203 | -6.24448 | 229 ft | 14 kts | 49° |
| 2026-05-06 11:29 | 53.43300 | -6.24404 | 227 ft | 15 kts | 14° |
| 2026-05-06 11:29 | 53.43338 | -6.24254 | 227 ft | 16 kts | 93° |
| 2026-05-06 11:30 | 53.43326 | -6.24058 | 227 ft | 18 kts | 93° |
| 2026-05-06 11:30 | 53.43340 | -6.23877 | 228 ft | 4 kts | 44° |
| 2026-05-06 11:30 | 53.43379 | -6.23854 | 225 ft | 8 kts | 5° |
| 2026-05-06 11:30 | 53.43463 | -6.23855 | 218 ft | 17 kts | 354° |
| 2026-05-06 11:31 | 53.43490 | -6.23913 | 218 ft | 5 kts | 274° |
| 2026-05-06 11:31 | 53.43498 | -6.24065 | 220 ft | 34 kts | 275° |
| 2026-05-06 11:31 | 53.43542 | -6.24843 | 227 ft | 98 kts | 275° |
| 2026-05-06 11:31 | 53.43621 | -6.26279 | 231 ft | 147 kts | 275° |
| 2026-05-06 11:32 | 53.43730 | -6.28140 | 402 ft | 168 kts | 275° |
| 2026-05-06 11:32 | 53.43806 | -6.30125 | 915 ft | 176 kts | 275° |
| 2026-05-06 11:32 | 53.44123 | -6.32164 | 1360 ft | 185 kts | 303° |
| 2026-05-06 11:32 | 53.45066 | -6.33612 | 1945 ft | 189 kts | 334° |
| 2026-05-06 11:33 | 53.46289 | -6.34595 | 2496 ft | 206 kts | 329° |
| 2026-05-06 11:33 | 53.47381 | -6.36245 | 3138 ft | 218 kts | 306° |
| 2026-05-06 11:33 | 53.48240 | -6.38439 | 3772 ft | 234 kts | 302° |
| 2026-05-06 11:33 | 53.49130 | -6.40829 | 4397 ft | 249 kts | 301° |
| 2026-05-06 11:34 | 53.50108 | -6.43335 | 5021 ft | 262 kts | 303° |
| 2026-05-06 11:34 | 53.50987 | -6.45998 | 5967 ft | 262 kts | 289° |
| 2026-05-06 11:34 | 53.51280 | -6.49011 | 6778 ft | 265 kts | 266° |
| 2026-05-06 11:34 | 53.50845 | -6.52021 | 7609 ft | 267 kts | 244° |
| 2026-05-06 11:35 | 53.49884 | -6.54656 | 8430 ft | 271 kts | 238° |
| 2026-05-06 11:35 | 53.48859 | -6.57356 | 8938 ft | 277 kts | 239° |
| 2026-05-06 11:35 | 53.47831 | -6.60095 | 9005 ft | 277 kts | 239° |
| 2026-05-06 11:35 | 53.46809 | -6.62828 | 9009 ft | 277 kts | 239° |
| 2026-05-06 11:36 | 53.45775 | -6.65566 | 9571 ft | 277 kts | 239° |
| 2026-05-06 11:36 | 53.44748 | -6.68294 | 10397 ft | 282 kts | 239° |
| 2026-05-06 11:36 | 53.43666 | -6.71166 | 10776 ft | 300 kts | 239° |
| 2026-05-06 11:36 | 53.42531 | -6.74178 | 11297 ft | 312 kts | 239° |
| 2026-05-06 11:37 | 53.41377 | -6.77236 | 12071 ft | 315 kts | 239° |
| 2026-05-06 11:37 | 53.40184 | -6.80392 | 12934 ft | 318 kts | 239° |
| 2026-05-06 11:37 | 53.39010 | -6.83498 | 13760 ft | 322 kts | 239° |
| 2026-05-06 11:37 | 53.37805 | -6.86678 | 14531 ft | 325 kts | 239° |
| 2026-05-06 11:38 | 53.36587 | -6.89890 | 15274 ft | 329 kts | 239° |
| 2026-05-06 11:38 | 53.35347 | -6.93154 | 16055 ft | 334 kts | 239° |
| 2026-05-06 11:38 | 53.34096 | -6.96446 | 16810 ft | 338 kts | 239° |
| 2026-05-06 11:38 | 53.32827 | -6.99780 | 17561 ft | 342 kts | 238° |
| 2026-05-06 11:39 | 53.31545 | -7.03143 | 18282 ft | 346 kts | 238° |
| 2026-05-06 11:39 | 53.30240 | -7.06562 | 18910 ft | 350 kts | 238° |
| 2026-05-06 11:39 | 53.28924 | -7.10005 | 19547 ft | 353 kts | 239° |
| 2026-05-06 11:39 | 53.27614 | -7.13428 | 20172 ft | 356 kts | 239° |
| 2026-05-06 11:40 | 53.26277 | -7.16919 | 20797 ft | 359 kts | 239° |
| 2026-05-06 11:40 | 53.24847 | -7.20358 | 21376 ft | 364 kts | 229° |
| 2026-05-06 11:40 | 53.22812 | -7.22899 | 22002 ft | 371 kts | 207° |
| 2026-05-06 11:40 | 53.20302 | -7.24022 | 22551 ft | 380 kts | 186° |
| 2026-05-06 11:41 | 53.17640 | -7.23772 | 23113 ft | 389 kts | 170° |
| 2026-05-06 11:41 | 53.15071 | -7.22278 | 23643 ft | 396 kts | 155° |
| 2026-05-06 11:41 | 53.12773 | -7.19703 | 24096 ft | 402 kts | 140° |
| 2026-05-06 11:41 | 53.10729 | -7.16484 | 24567 ft | 406 kts | 137° |
| 2026-05-06 11:42 | 53.08727 | -7.13149 | 25018 ft | 409 kts | 135° |
| 2026-05-06 11:42 | 53.06779 | -7.09807 | 25488 ft | 411 kts | 135° |
| 2026-05-06 11:42 | 53.04799 | -7.06367 | 25934 ft | 414 kts | 134° |
| 2026-05-06 11:42 | 53.02814 | -7.02890 | 26380 ft | 416 kts | 134° |
| 2026-05-06 11:43 | 53.00820 | -6.99385 | 26844 ft | 418 kts | 134° |
| 2026-05-06 11:43 | 52.98817 | -6.95863 | 27271 ft | 421 kts | 134° |
| 2026-05-06 11:43 | 52.96803 | -6.92326 | 27693 ft | 423 kts | 134° |
| 2026-05-06 11:44 | 52.92729 | -6.85185 | 28514 ft | 429 kts | 134° |
| 2026-05-06 11:44 | 52.90675 | -6.81593 | 28910 ft | 431 kts | 134° |
| 2026-05-06 11:44 | 52.88641 | -6.78039 | 29296 ft | 434 kts | 134° |
| 2026-05-06 11:44 | 52.86561 | -6.74413 | 29692 ft | 436 kts | 134° |
| 2026-05-06 11:45 | 52.84461 | -6.70755 | 30063 ft | 439 kts | 134° |
| 2026-05-06 11:45 | 52.82354 | -6.67092 | 30384 ft | 441 kts | 134° |
| 2026-05-06 11:45 | 52.80236 | -6.63416 | 30693 ft | 443 kts | 135° |
| 2026-05-06 11:45 | 52.78107 | -6.59726 | 31011 ft | 445 kts | 135° |
| 2026-05-06 11:46 | 52.75969 | -6.56024 | 31354 ft | 446 kts | 135° |
| 2026-05-06 11:46 | 52.73829 | -6.52326 | 31765 ft | 445 kts | 135° |
| 2026-05-06 11:46 | 52.71702 | -6.48656 | 32152 ft | 445 kts | 135° |
| 2026-05-06 11:46 | 52.69565 | -6.44973 | 32545 ft | 444 kts | 135° |
| 2026-05-06 11:47 | 52.67456 | -6.41344 | 32920 ft | 444 kts | 135° |
| 2026-05-06 11:47 | 52.65311 | -6.37660 | 33055 ft | 446 kts | 135° |
| 2026-05-06 11:47 | 52.61039 | -6.30338 | 33036 ft | 443 kts | 135° |
| 2026-05-06 11:48 | 52.58903 | -6.26685 | 33282 ft | 443 kts | 136° |
| 2026-05-06 11:48 | 52.56756 | -6.23019 | 33543 ft | 446 kts | 136° |
| 2026-05-06 11:48 | 52.54611 | -6.19363 | 33808 ft | 448 kts | 136° |
| 2026-05-06 11:48 | 52.52446 | -6.15677 | 34085 ft | 449 kts | 136° |
| 2026-05-06 11:49 | 52.50276 | -6.11988 | 34298 ft | 450 kts | 136° |
| 2026-05-06 11:49 | 52.48120 | -6.08330 | 34522 ft | 452 kts | 136° |
| 2026-05-06 11:49 | 52.45935 | -6.04625 | 34743 ft | 453 kts | 136° |
| 2026-05-06 11:49 | 52.43738 | -6.00909 | 34960 ft | 455 kts | 136° |
| 2026-05-06 11:50 | 52.41531 | -5.97179 | 35181 ft | 456 kts | 136° |
| 2026-05-06 11:50 | 52.39320 | -5.93450 | 35432 ft | 457 kts | 136° |
| 2026-05-06 11:50 | 52.37113 | -5.89732 | 35661 ft | 457 kts | 136° |
| 2026-05-06 11:50 | 52.34892 | -5.85998 | 35894 ft | 458 kts | 136° |
| 2026-05-06 11:51 | 52.32669 | -5.82263 | 36120 ft | 459 kts | 136° |
| 2026-05-06 11:51 | 52.30466 | -5.78566 | 36337 ft | 460 kts | 136° |
| 2026-05-06 11:51 | 52.28235 | -5.74829 | 36555 ft | 461 kts | 136° |
| 2026-05-06 11:51 | 52.25992 | -5.71092 | 36758 ft | 461 kts | 138° |
| 2026-05-06 11:52 | 52.23451 | -5.67962 | 36954 ft | 455 kts | 155° |
| 2026-05-06 11:52 | 52.20582 | -5.65819 | 37040 ft | 455 kts | 158° |
| 2026-05-06 11:52 | 52.14780 | -5.61735 | 37027 ft | 456 kts | 159° |
| 2026-05-06 11:53 | 52.08966 | -5.57790 | 37040 ft | 455 kts | 160° |
| 2026-05-06 11:53 | 52.03160 | -5.53694 | 37030 ft | 456 kts | 155° |
| 2026-05-06 11:54 | 51.97462 | -5.49125 | 37034 ft | 456 kts | 156° |
| 2026-05-06 11:54 | 51.91768 | -5.44648 | 37033 ft | 456 kts | 156° |
| 2026-05-06 11:55 | 51.86062 | -5.40183 | 37032 ft | 455 kts | 156° |
| 2026-05-06 11:55 | 51.80389 | -5.35757 | 37030 ft | 455 kts | 156° |
| 2026-05-06 11:56 | 51.74683 | -5.31318 | 37027 ft | 455 kts | 156° |
| 2026-05-06 11:56 | 51.68986 | -5.26898 | 37016 ft | 455 kts | 156° |
| 2026-05-06 11:57 | 51.63275 | -5.22480 | 37031 ft | 455 kts | 156° |
| 2026-05-06 11:57 | 51.57614 | -5.18113 | 37033 ft | 454 kts | 156° |
| 2026-05-06 11:58 | 51.51908 | -5.13716 | 37031 ft | 455 kts | 155° |
| 2026-05-06 11:58 | 51.49270 | -5.10978 | 37003 ft | 456 kts | 140° |
| 2026-05-06 11:58 | 51.46912 | -5.07586 | 37046 ft | 457 kts | 141° |
| 2026-05-06 11:59 | 51.42104 | -5.00894 | 37034 ft | 457 kts | 140° |
| 2026-05-06 11:59 | 51.37353 | -4.94207 | 37019 ft | 457 kts | 140° |
| 2026-05-06 12:00 | 51.32578 | -4.87493 | 37026 ft | 458 kts | 140° |
| 2026-05-06 12:00 | 51.27802 | -4.80793 | 37026 ft | 458 kts | 140° |
| 2026-05-06 12:01 | 51.23015 | -4.74098 | 37011 ft | 457 kts | 140° |
| 2026-05-06 12:01 | 51.18236 | -4.67433 | 37018 ft | 456 kts | 140° |
| 2026-05-06 12:02 | 51.13497 | -4.60844 | 37016 ft | 456 kts | 140° |
| 2026-05-06 12:02 | 51.08710 | -4.54205 | 37015 ft | 456 kts | 140° |
| 2026-05-06 12:03 | 51.03876 | -4.47675 | 37002 ft | 455 kts | 147° |
| 2026-05-06 12:03 | 50.98540 | -4.42315 | 37010 ft | 455 kts | 149° |
| 2026-05-06 12:04 | 50.93246 | -4.37021 | 37017 ft | 454 kts | 149° |
| 2026-05-06 12:04 | 50.87887 | -4.31686 | 37004 ft | 454 kts | 149° |
| 2026-05-06 12:05 | 50.82534 | -4.26373 | 37008 ft | 454 kts | 149° |
| 2026-05-06 12:05 | 50.77183 | -4.21076 | 37002 ft | 454 kts | 149° |
| 2026-05-06 12:06 | 50.71877 | -4.15838 | 37002 ft | 453 kts | 149° |
| 2026-05-06 12:06 | 50.66531 | -4.10574 | 37004 ft | 453 kts | 149° |
| 2026-05-06 12:07 | 50.61183 | -4.05324 | 37004 ft | 453 kts | 149° |
| 2026-05-06 12:07 | 50.55833 | -4.00085 | 36995 ft | 453 kts | 149° |
| 2026-05-06 12:08 | 50.50499 | -3.94876 | 37004 ft | 452 kts | 149° |
| 2026-05-06 12:08 | 50.45185 | -3.89701 | 37004 ft | 452 kts | 149° |
| 2026-05-06 12:09 | 50.39833 | -3.84503 | 37007 ft | 452 kts | 149° |
| 2026-05-06 12:09 | 50.34480 | -3.79317 | 37003 ft | 452 kts | 149° |
| 2026-05-06 12:10 | 50.29141 | -3.74160 | 37003 ft | 452 kts | 149° |
| 2026-05-06 12:10 | 50.23788 | -3.69002 | 37010 ft | 452 kts | 149° |
| 2026-05-06 12:11 | 50.18465 | -3.63887 | 37006 ft | 452 kts | 150° |
| 2026-05-06 12:11 | 50.13101 | -3.58746 | 36997 ft | 452 kts | 150° |
| 2026-05-06 12:12 | 50.07735 | -3.53617 | 37001 ft | 454 kts | 150° |
| 2026-05-06 12:12 | 50.02333 | -3.48467 | 37006 ft | 456 kts | 150° |
| 2026-05-06 12:13 | 49.96962 | -3.43360 | 36998 ft | 456 kts | 150° |
| 2026-05-06 12:13 | 49.91557 | -3.38235 | 36995 ft | 454 kts | 150° |
| 2026-05-06 12:14 | 49.86177 | -3.33144 | 37006 ft | 454 kts | 149° |
| 2026-05-06 12:14 | 49.80794 | -3.28065 | 36990 ft | 452 kts | 150° |
| 2026-05-06 12:15 | 49.77951 | -3.26048 | 36949 ft | 448 kts | 167° |
| 2026-05-06 12:15 | 49.74954 | -3.25061 | 37028 ft | 447 kts | 169° |
| 2026-05-06 12:15 | 49.68845 | -3.23134 | 36985 ft | 448 kts | 170° |
| 2026-05-06 12:16 | 49.62714 | -3.21315 | 36981 ft | 449 kts | 170° |
| 2026-05-06 12:16 | 49.56572 | -3.19526 | 36986 ft | 449 kts | 171° |
| 2026-05-06 12:17 | 49.50429 | -3.17742 | 36988 ft | 449 kts | 171° |
| 2026-05-06 12:17 | 49.44331 | -3.15977 | 36986 ft | 449 kts | 171° |
| 2026-05-06 12:18 | 49.38197 | -3.14206 | 36984 ft | 449 kts | 170° |
| 2026-05-06 12:18 | 49.32052 | -3.12435 | 36985 ft | 449 kts | 171° |
| 2026-05-06 12:19 | 49.25902 | -3.10668 | 36983 ft | 449 kts | 170° |
| 2026-05-06 12:19 | 49.19795 | -3.08917 | 36983 ft | 450 kts | 170° |
| 2026-05-06 12:20 | 49.13660 | -3.07163 | 36982 ft | 450 kts | 170° |
| 2026-05-06 12:20 | 49.07499 | -3.05406 | 36985 ft | 450 kts | 170° |
| 2026-05-06 12:21 | 49.01341 | -3.03654 | 36977 ft | 451 kts | 170° |
| 2026-05-06 12:21 | 48.95173 | -3.01904 | 36981 ft | 451 kts | 170° |
| 2026-05-06 12:22 | 48.89056 | -3.00173 | 36983 ft | 451 kts | 170° |
| 2026-05-06 12:22 | 48.82884 | -2.98431 | 36977 ft | 451 kts | 170° |
| 2026-05-06 12:23 | 48.76710 | -2.96691 | 36968 ft | 451 kts | 170° |
| 2026-05-06 12:23 | 48.70556 | -2.94832 | 36952 ft | 452 kts | 164° |
| 2026-05-06 12:24 | 48.64539 | -2.92176 | 36979 ft | 453 kts | 164° |
| 2026-05-06 12:24 | 48.58550 | -2.89507 | 36966 ft | 452 kts | 164° |
| 2026-05-06 12:25 | 48.52510 | -2.86818 | 36965 ft | 452 kts | 164° |
| 2026-05-06 12:25 | 48.46470 | -2.84134 | 36976 ft | 453 kts | 164° |
| 2026-05-06 12:26 | 48.40443 | -2.81464 | 36966 ft | 452 kts | 164° |
| 2026-05-06 12:26 | 48.34441 | -2.78811 | 36958 ft | 453 kts | 164° |
| 2026-05-06 12:27 | 48.28398 | -2.76146 | 36973 ft | 453 kts | 164° |
| 2026-05-06 12:27 | 48.22348 | -2.73485 | 36958 ft | 453 kts | 164° |
| 2026-05-06 12:28 | 48.16320 | -2.70839 | 36941 ft | 453 kts | 164° |
| 2026-05-06 12:28 | 48.10315 | -2.68211 | 36981 ft | 453 kts | 164° |
| 2026-05-06 12:29 | 48.04262 | -2.65568 | 36965 ft | 453 kts | 164° |
| 2026-05-06 12:29 | 47.98213 | -2.62933 | 36957 ft | 453 kts | 164° |
| 2026-05-06 12:30 | 47.92175 | -2.60309 | 36954 ft | 453 kts | 164° |
| 2026-05-06 12:30 | 47.86167 | -2.57705 | 36968 ft | 453 kts | 165° |
| 2026-05-06 12:31 | 47.80113 | -2.55087 | 36966 ft | 453 kts | 165° |
| 2026-05-06 12:31 | 47.74069 | -2.52479 | 36951 ft | 451 kts | 165° |
| 2026-05-06 12:32 | 47.68407 | -2.48991 | 36927 ft | 439 kts | 142° |
| 2026-05-06 12:32 | 47.66222 | -2.45861 | 36976 ft | 437 kts | 131° |
| 2026-05-06 12:32 | 47.64179 | -2.42491 | 36947 ft | 441 kts | 132° |
| 2026-05-06 12:33 | 47.62161 | -2.39128 | 36630 ft | 434 kts | 131° |
| 2026-05-06 12:33 | 47.60183 | -2.35792 | 35781 ft | 439 kts | 131° |
| 2026-05-06 12:33 | 47.58161 | -2.32353 | 34905 ft | 446 kts | 130° |
| 2026-05-06 12:33 | 47.56116 | -2.28863 | 34043 ft | 451 kts | 130° |
| 2026-05-06 12:34 | 47.54047 | -2.25339 | 33045 ft | 456 kts | 130° |
| 2026-05-06 12:34 | 47.51964 | -2.21793 | 32068 ft | 461 kts | 130° |
| 2026-05-06 12:34 | 47.49850 | -2.18198 | 31245 ft | 463 kts | 130° |
| 2026-05-06 12:34 | 47.47747 | -2.14626 | 30747 ft | 457 kts | 131° |
| 2026-05-06 12:35 | 47.45684 | -2.11127 | 30433 ft | 447 kts | 131° |
| 2026-05-06 12:35 | 47.43658 | -2.07695 | 29987 ft | 441 kts | 130° |
| 2026-05-06 12:35 | 47.42328 | -2.05443 | 29603 ft | 438 kts | 130° |
| 2026-05-06 12:35 | 47.39690 | -2.00985 | 28948 ft | 432 kts | 130° |
| 2026-05-06 12:36 | 47.37728 | -1.97672 | 28508 ft | 426 kts | 130° |
| 2026-05-06 12:36 | 47.35797 | -1.94416 | 28062 ft | 421 kts | 130° |
| 2026-05-06 12:36 | 47.33883 | -1.91183 | 27563 ft | 417 kts | 130° |
| 2026-05-06 12:36 | 47.31988 | -1.87986 | 27148 ft | 412 kts | 130° |
| 2026-05-06 12:37 | 47.30113 | -1.84826 | 26750 ft | 406 kts | 130° |
| 2026-05-06 12:37 | 47.28263 | -1.81710 | 26333 ft | 402 kts | 130° |
| 2026-05-06 12:37 | 47.27045 | -1.79662 | 26067 ft | 399 kts | 130° |
| 2026-05-06 12:37 | 47.25223 | -1.76600 | 25660 ft | 395 kts | 130° |
| 2026-05-06 12:38 | 47.22836 | -1.72594 | 25132 ft | 391 kts | 130° |
| 2026-05-06 12:38 | 47.21631 | -1.70574 | 24873 ft | 388 kts | 130° |
| 2026-05-06 12:38 | 47.19291 | -1.66655 | 24365 ft | 385 kts | 130° |
| 2026-05-06 12:38 | 47.17522 | -1.63711 | 23979 ft | 383 kts | 131° |
| 2026-05-06 12:39 | 47.16204 | -1.61988 | 23664 ft | 385 kts | 145° |
| 2026-05-06 12:39 | 47.13781 | -1.60364 | 23201 ft | 384 kts | 165° |
| 2026-05-06 12:39 | 47.11210 | -1.59382 | 22862 ft | 378 kts | 164° |
| 2026-05-06 12:39 | 47.08685 | -1.58356 | 22491 ft | 374 kts | 164° |
| 2026-05-06 12:40 | 47.06186 | -1.57353 | 22117 ft | 371 kts | 164° |
| 2026-05-06 12:40 | 47.02911 | -1.56047 | 21633 ft | 366 kts | 164° |
| 2026-05-06 12:40 | 47.00471 | -1.55077 | 21276 ft | 362 kts | 164° |
| 2026-05-06 12:40 | 46.98831 | -1.54426 | 21035 ft | 360 kts | 164° |
| 2026-05-06 12:41 | 46.96435 | -1.53475 | 20692 ft | 357 kts | 164° |
| 2026-05-06 12:41 | 46.94075 | -1.52539 | 20330 ft | 354 kts | 164° |
| 2026-05-06 12:41 | 46.91708 | -1.51601 | 19980 ft | 351 kts | 164° |
| 2026-05-06 12:41 | 46.89362 | -1.50673 | 19645 ft | 348 kts | 164° |
| 2026-05-06 12:42 | 46.87036 | -1.49754 | 19304 ft | 345 kts | 164° |
| 2026-05-06 12:42 | 46.84722 | -1.48840 | 18964 ft | 342 kts | 164° |
| 2026-05-06 12:42 | 46.82434 | -1.47937 | 18632 ft | 340 kts | 164° |
| 2026-05-06 12:42 | 46.80160 | -1.47041 | 18298 ft | 337 kts | 164° |
| 2026-05-06 12:43 | 46.77898 | -1.46150 | 17930 ft | 335 kts | 165° |
| 2026-05-06 12:43 | 46.75657 | -1.45268 | 17568 ft | 333 kts | 164° |
| 2026-05-06 12:43 | 46.73458 | -1.44403 | 17230 ft | 330 kts | 165° |
| 2026-05-06 12:43 | 46.71261 | -1.43540 | 16913 ft | 327 kts | 165° |
| 2026-05-06 12:44 | 46.69076 | -1.42682 | 16596 ft | 324 kts | 165° |
| 2026-05-06 12:44 | 46.66908 | -1.41832 | 16279 ft | 321 kts | 165° |
| 2026-05-06 12:44 | 46.64762 | -1.40991 | 15957 ft | 318 kts | 165° |
| 2026-05-06 12:44 | 46.62631 | -1.40156 | 15641 ft | 316 kts | 165° |
| 2026-05-06 12:45 | 46.60517 | -1.39328 | 15317 ft | 314 kts | 165° |
| 2026-05-06 12:45 | 46.58418 | -1.38482 | 14981 ft | 312 kts | 165° |
| 2026-05-06 12:45 | 46.54294 | -1.36816 | 14363 ft | 307 kts | 165° |
| 2026-05-06 12:46 | 46.52251 | -1.35992 | 14069 ft | 303 kts | 165° |
| 2026-05-06 12:46 | 46.50232 | -1.35158 | 13766 ft | 300 kts | 161° |
| 2026-05-06 12:46 | 46.48356 | -1.33855 | 13399 ft | 299 kts | 151° |
| 2026-05-06 12:46 | 46.46547 | -1.32409 | 13063 ft | 297 kts | 151° |
| 2026-05-06 12:47 | 46.44741 | -1.30982 | 12775 ft | 294 kts | 151° |
| 2026-05-06 12:47 | 46.42935 | -1.29563 | 12490 ft | 298 kts | 151° |
| 2026-05-06 12:47 | 46.41095 | -1.28122 | 12188 ft | 303 kts | 151° |
| 2026-05-06 12:47 | 46.39257 | -1.26687 | 11861 ft | 305 kts | 151° |
| 2026-05-06 12:48 | 46.37419 | -1.25147 | 11442 ft | 307 kts | 141° |
| 2026-05-06 12:48 | 46.36046 | -1.22790 | 10827 ft | 311 kts | 116° |
| 2026-05-06 12:48 | 46.35077 | -1.19971 | 10236 ft | 314 kts | 120° |
| 2026-05-06 12:48 | 46.33925 | -1.17300 | 9629 ft | 311 kts | 121° |
| 2026-05-06 12:49 | 46.32791 | -1.14653 | 8993 ft | 308 kts | 121° |
| 2026-05-06 12:49 | 46.31682 | -1.12034 | 8443 ft | 303 kts | 120° |
| 2026-05-06 12:49 | 46.30593 | -1.09443 | 7833 ft | 300 kts | 120° |
| 2026-05-06 12:49 | 46.29536 | -1.06916 | 7255 ft | 297 kts | 120° |
| 2026-05-06 12:50 | 46.28473 | -1.04372 | 6674 ft | 294 kts | 119° |
| 2026-05-06 12:50 | 46.27421 | -1.01853 | 6094 ft | 291 kts | 119° |
| 2026-05-06 12:50 | 46.26387 | -0.99381 | 5622 ft | 283 kts | 120° |
| 2026-05-06 12:50 | 46.25389 | -0.96995 | 5322 ft | 271 kts | 119° |
| 2026-05-06 12:51 | 46.24442 | -0.94729 | 5124 ft | 257 kts | 119° |
| 2026-05-06 12:51 | 46.23530 | -0.92564 | 4965 ft | 248 kts | 118° |
| 2026-05-06 12:51 | 46.22650 | -0.90477 | 4724 ft | 239 kts | 118° |
| 2026-05-06 12:51 | 46.21818 | -0.88483 | 4463 ft | 230 kts | 117° |
| 2026-05-06 12:52 | 46.21009 | -0.86550 | 4293 ft | 220 kts | 117° |
| 2026-05-06 12:52 | 46.20234 | -0.84706 | 4118 ft | 210 kts | 118° |
| 2026-05-06 12:52 | 46.19498 | -0.82971 | 4026 ft | 195 kts | 119° |
| 2026-05-06 12:52 | 46.18519 | -0.81744 | 3866 ft | 187 kts | 160° |
| 2026-05-06 12:53 | 46.17264 | -0.81822 | 3740 ft | 182 kts | 205° |
| 2026-05-06 12:53 | 46.16344 | -0.83006 | 3932 ft | 178 kts | 244° |
| 2026-05-06 12:53 | 46.16054 | -0.84702 | 4135 ft | 175 kts | 279° |
| 2026-05-06 12:53 | 46.16304 | -0.86407 | 4157 ft | 175 kts | 285° |
| 2026-05-06 12:54 | 46.16539 | -0.88100 | 3987 ft | 174 kts | 285° |
| 2026-05-06 12:54 | 46.16780 | -0.89811 | 3758 ft | 175 kts | 284° |
| 2026-05-06 12:54 | 46.16960 | -0.91562 | 3551 ft | 177 kts | 281° |
| 2026-05-06 12:54 | 46.17086 | -0.93332 | 3399 ft | 178 kts | 279° |
| 2026-05-06 12:55 | 46.17174 | -0.95108 | 3289 ft | 177 kts | 278° |
| 2026-05-06 12:55 | 46.17242 | -0.96884 | 3161 ft | 178 kts | 278° |
| 2026-05-06 12:55 | 46.17301 | -0.98661 | 2984 ft | 178 kts | 277° |
| 2026-05-06 12:55 | 46.17358 | -1.00405 | 2747 ft | 171 kts | 277° |
| 2026-05-06 12:56 | 46.17406 | -1.02058 | 2530 ft | 161 kts | 278° |
| 2026-05-06 12:56 | 46.17454 | -1.03639 | 2295 ft | 156 kts | 278° |
| 2026-05-06 12:56 | 46.17499 | -1.05195 | 2080 ft | 155 kts | 277° |
| 2026-05-06 12:56 | 46.17545 | -1.06742 | 1860 ft | 154 kts | 278° |
| 2026-05-06 12:57 | 46.17590 | -1.08276 | 1641 ft | 152 kts | 278° |
| 2026-05-06 12:57 | 46.17635 | -1.09801 | 1412 ft | 151 kts | 279° |
| 2026-05-06 12:57 | 46.17679 | -1.11313 | 1195 ft | 151 kts | 278° |
| 2026-05-06 12:57 | 46.17723 | -1.12804 | 979 ft | 150 kts | 278° |
| 2026-05-06 12:58 | 46.17764 | -1.14301 | 731 ft | 149 kts | 275° |
| 2026-05-06 12:58 | 46.17789 | -1.15770 | 491 ft | 143 kts | 279° |
| 2026-05-06 12:58 | 46.17841 | -1.17169 | 310 ft | 138 kts | 277° |
| 2026-05-06 12:58 | 46.17879 | -1.18556 | 126 ft | 138 kts | 278° |
| 2026-05-06 12:59 | 46.17927 | -1.19734 | 84 ft | 70 kts | 272° |
| 2026-05-06 12:59 | 46.17928 | -1.19970 | 83 ft | 0 kts | 277° |
| 2026-05-06 12:59 | 46.17927 | -1.19977 | 83 ft | 2 kts | 259° |
| 2026-05-06 12:59 | 46.17928 | -1.19981 | 84 ft | 0 kts | 291° |
| 2026-05-06 13:00 | 46.17933 | -1.19982 | 80 ft | 2 kts | 357° |
| 2026-05-06 13:00 | 46.17951 | -1.19918 | 80 ft | 14 kts | 108° |
| 2026-05-06 13:00 | 46.17926 | -1.19709 | 81 ft | 25 kts | 93° |
| 2026-05-06 13:00 | 46.17878 | -1.19529 | 85 ft | 15 kts | 167° |
| 2026-05-06 13:01 | 46.17780 | -1.19528 | 81 ft | 13 kts | 182° |
| 2026-05-06 13:01 | 46.17698 | -1.19481 | 79 ft | 14 kts | 108° |
| 2026-05-06 13:01 | 46.17692 | -1.19438 | 81 ft | 0 kts | 108° |
| 2026-05-06 13:02 | 46.17684 | -1.19425 | 80 ft | 6 kts | 129° |
| 2026-05-06 13:02 | 46.17650 | -1.19377 | 80 ft | 0 kts | 141° |